createdAt,value
2022-09-04T00:01:02.743Z,17.72
2022-09-04T00:03:32.978Z,17.66
2022-09-04T00:06:03.634Z,17.64
2022-09-04T00:08:41.261Z,17.66
2022-09-04T00:11:11.479Z,17.66
2022-09-04T00:13:42.783Z,17.66
2022-09-04T00:16:12.520Z,17.66
2022-09-04T00:18:41.499Z,17.66
2022-09-04T00:21:15.894Z,17.64
2022-09-04T00:23:47.413Z,17.66
2022-09-04T00:26:20.880Z,17.68
2022-09-04T00:28:49.285Z,17.69
2022-09-04T00:31:20.787Z,17.67
2022-09-04T00:33:50.270Z,17.69
2022-09-04T00:36:19.082Z,17.65
2022-09-04T00:38:48.497Z,17.60
2022-09-04T00:41:19.607Z,17.55
2022-09-04T00:44:07.099Z,17.50
2022-09-04T00:46:46.356Z,17.48
2022-09-04T00:49:23.029Z,17.49
2022-09-04T00:51:56.535Z,17.48
2022-09-04T00:54:33.810Z,17.47
2022-09-04T00:57:29.179Z,17.45
2022-09-04T01:00:02.267Z,17.44
2022-09-04T01:02:34.955Z,17.43
2022-09-04T01:05:07.303Z,17.44
2022-09-04T01:07:44.192Z,17.45
2022-09-04T01:10:24.799Z,17.40
2022-09-04T01:12:56.905Z,17.39
2022-09-04T01:15:26.744Z,17.39
2022-09-04T01:17:59.959Z,17.41
2022-09-04T01:20:31.016Z,17.42
2022-09-04T01:23:12.222Z,17.42
2022-09-04T01:26:00.784Z,17.42
2022-09-04T01:28:29.699Z,17.42
2022-09-04T01:31:01.096Z,17.42
2022-09-04T01:33:31.411Z,17.42
2022-09-04T01:36:02.078Z,17.38
2022-09-04T01:38:33.132Z,17.34
2022-09-04T01:41:03.962Z,17.35
2022-09-04T01:43:30.451Z,17.34
2022-09-04T01:46:05.352Z,17.31
2022-09-04T01:48:36.273Z,17.22
2022-09-04T01:51:06.109Z,17.12
2022-09-04T01:53:36.951Z,17.09
2022-09-04T01:56:08.478Z,17.10
2022-09-04T01:58:41.135Z,17.10
2022-09-04T02:01:13.158Z,17.07
2022-09-04T02:03:45.440Z,17.03
2022-09-04T02:06:15.879Z,17.00
2022-09-04T02:08:46.779Z,17.01
2022-09-04T02:11:16.265Z,17.02
2022-09-04T02:13:47.287Z,17.03
2022-09-04T02:16:16.848Z,17.04
2022-09-04T02:18:50.045Z,17.06
2022-09-04T02:21:19.623Z,17.05
2022-09-04T02:23:49.391Z,17.05
2022-09-04T02:26:20.299Z,17.05
2022-09-04T02:28:52.344Z,17.04
2022-09-04T02:31:23.305Z,17.03
2022-09-04T02:33:52.548Z,17.03
2022-09-04T02:36:22.635Z,17.04
2022-09-04T02:38:54.466Z,17.05
2022-09-04T02:41:24.758Z,16.96
2022-09-04T02:43:57.630Z,16.89
2022-09-04T02:46:27.527Z,16.92
2022-09-04T02:48:57.986Z,16.93
2022-09-04T02:51:32.698Z,16.93
2022-09-04T02:54:02.490Z,16.95
2022-09-04T02:56:35.730Z,16.96
2022-09-04T02:59:10.827Z,16.91
2022-09-04T03:01:45.426Z,16.91
2022-09-04T03:04:18.063Z,16.90
2022-09-04T03:06:49.783Z,16.89
2022-09-04T03:09:19.298Z,16.88
2022-09-04T03:11:50.282Z,16.86
2022-09-04T03:14:20.823Z,16.83
2022-09-04T03:16:50.235Z,16.77
2022-09-04T03:19:19.431Z,16.75
2022-09-04T03:21:48.807Z,16.70
2022-09-04T03:24:17.864Z,16.69
2022-09-04T03:26:47.028Z,16.68
2022-09-04T03:29:21.832Z,16.67
2022-09-04T03:31:51.019Z,16.65
2022-09-04T03:34:26.209Z,16.64
2022-09-04T03:37:03.550Z,16.65
2022-09-04T03:39:35.698Z,16.64
2022-09-04T03:42:06.540Z,16.62
2022-09-04T03:44:42.324Z,16.62
2022-09-04T03:47:15.091Z,16.61
2022-09-04T03:49:48.046Z,16.60
2022-09-04T03:52:20.048Z,16.51
2022-09-04T03:54:53.846Z,16.48
2022-09-04T03:57:29.907Z,16.46
2022-09-04T04:00:06.238Z,16.37
2022-09-04T04:02:41.147Z,16.32
2022-09-04T04:05:20.071Z,16.25
2022-09-04T04:07:54.152Z,16.24
2022-09-04T04:10:25.106Z,16.26
2022-09-04T04:13:02.134Z,16.26
2022-09-04T04:15:41.119Z,16.18
2022-09-04T04:18:15.083Z,16.18
2022-09-04T04:20:44.795Z,16.15
2022-09-04T04:23:22.809Z,16.14
2022-09-04T04:25:54.739Z,16.10
2022-09-04T04:28:33.343Z,16.08
2022-09-04T04:31:06.131Z,16.05
2022-09-04T04:33:40.362Z,16.02
2022-09-04T04:36:12.151Z,16.05
2022-09-04T04:38:52.764Z,16.08
2022-09-04T04:41:35.073Z,16.09
2022-09-04T04:44:06.967Z,16.09
2022-09-04T04:46:43.147Z,16.09
2022-09-04T04:49:18.699Z,16.05
2022-09-04T04:51:59.476Z,16.02
2022-09-04T04:54:32.303Z,16.03
2022-09-04T04:57:01.320Z,16.01
2022-09-04T04:59:30.736Z,16.05
2022-09-04T05:02:03.056Z,16.07
2022-09-04T05:04:37.562Z,16.07
2022-09-04T05:07:08.715Z,16.08
2022-09-04T05:09:39.825Z,16.08
2022-09-04T05:12:09.118Z,16.06
2022-09-04T05:14:39.641Z,16.06
2022-09-04T05:17:14.015Z,16.07
2022-09-04T05:19:45.127Z,16.10
2022-09-04T05:22:15.416Z,16.14
2022-09-04T05:24:47.136Z,16.16
2022-09-04T05:27:26.351Z,16.17
2022-09-04T05:29:58.191Z,16.21
2022-09-04T05:32:28.831Z,16.20
2022-09-04T05:35:06.612Z,16.22
2022-09-04T05:37:37.927Z,16.24
2022-09-04T05:40:06.818Z,16.28
2022-09-04T05:42:42.682Z,16.31
2022-09-04T05:45:12.588Z,16.32
2022-09-04T05:47:43.198Z,16.35
2022-09-04T05:50:24.382Z,16.39
2022-09-04T05:53:04.829Z,16.40
2022-09-04T05:55:49.227Z,16.42
2022-09-04T05:58:26.928Z,16.45
2022-09-04T06:00:57.148Z,16.46
2022-09-04T06:03:32.748Z,16.50
2022-09-04T06:06:11.051Z,16.54
2022-09-04T06:09:01.461Z,16.57
2022-09-04T06:11:36.290Z,16.62
2022-09-04T06:14:09.327Z,16.67
2022-09-04T06:16:43.018Z,16.73
2022-09-04T06:19:19.648Z,16.81
2022-09-04T06:22:03.759Z,16.89
2022-09-04T06:24:42.628Z,16.98
2022-09-04T06:27:17.489Z,17.06
2022-09-04T06:29:57.745Z,17.16
2022-09-04T06:32:35.330Z,17.27
2022-09-04T06:35:21.458Z,17.38
2022-09-04T06:37:53.350Z,17.48
2022-09-04T06:40:28.115Z,17.57
2022-09-04T06:43:05.311Z,17.65
2022-09-04T06:45:39.215Z,17.71
2022-09-04T06:48:10.185Z,17.78
2022-09-04T06:50:44.325Z,17.86
2022-09-04T06:53:26.467Z,17.94
2022-09-04T06:56:07.114Z,18.04
2022-09-04T06:58:44.635Z,18.13
2022-09-04T07:01:13.197Z,18.22
2022-09-04T07:03:44.308Z,18.30
2022-09-04T07:06:15.235Z,18.40
2022-09-04T07:08:48.709Z,18.50
2022-09-04T07:11:19.867Z,18.60
2022-09-04T07:13:52.049Z,18.69
2022-09-04T07:16:33.269Z,18.80
2022-09-04T07:19:05.971Z,18.92
2022-09-04T07:21:38.280Z,18.99
2022-09-04T07:24:08.766Z,19.11
2022-09-04T07:26:38.210Z,19.21
2022-09-04T07:29:25.126Z,19.30
2022-09-04T07:31:56.267Z,19.42
2022-09-04T07:34:25.636Z,19.58
2022-09-04T07:36:55.114Z,19.78
2022-09-04T07:39:25.185Z,19.92
2022-09-04T07:41:55.910Z,20.04
2022-09-04T07:44:23.914Z,20.10
2022-09-04T07:46:54.974Z,20.13
2022-09-04T07:49:23.988Z,20.18
2022-09-04T07:51:56.406Z,20.25
2022-09-04T07:54:46.886Z,20.33
2022-09-04T07:57:20.746Z,20.41
2022-09-04T08:00:00.566Z,20.49
2022-09-04T08:02:31.119Z,20.57
2022-09-04T08:05:05.642Z,20.65
2022-09-04T08:07:48.697Z,20.75
2022-09-04T08:10:24.431Z,20.84
2022-09-04T08:12:59.434Z,20.94
2022-09-04T08:15:30.117Z,21.05
2022-09-04T08:18:04.792Z,21.13
2022-09-04T08:20:38.603Z,21.21
2022-09-04T08:23:12.579Z,21.29
2022-09-04T08:25:46.373Z,21.39
2022-09-04T08:28:19.723Z,21.50
2022-09-04T08:30:51.277Z,21.59
2022-09-04T08:33:27.365Z,21.69
2022-09-04T08:35:55.867Z,21.80
2022-09-04T08:38:30.343Z,21.90
2022-09-04T08:41:09.710Z,21.99
2022-09-04T08:43:53.586Z,22.07
2022-09-04T08:46:41.293Z,22.18
2022-09-04T08:49:17.039Z,22.30
2022-09-04T08:52:01.366Z,22.39
2022-09-04T08:54:47.984Z,22.50
2022-09-04T08:57:29.183Z,22.62
2022-09-04T09:00:06.947Z,22.74
2022-09-04T09:03:04.823Z,22.83
2022-09-04T09:05:59.262Z,22.96
2022-09-04T09:08:44.427Z,23.11
2022-09-04T09:11:34.287Z,23.20
2022-09-04T09:16:36.388Z,23.36
2022-09-04T09:19:09.515Z,23.40
2022-09-04T09:21:41.787Z,23.52
2022-09-04T09:24:35.041Z,23.61
2022-09-04T09:27:12.038Z,23.70
2022-09-04T09:29:50.821Z,23.79
2022-09-04T09:32:44.039Z,23.86
2022-09-04T09:35:38.459Z,23.92
2022-09-04T09:38:19.671Z,23.98
2022-09-04T09:41:03.285Z,24.01
2022-09-04T09:43:56.811Z,24.11
2022-09-04T09:46:35.576Z,24.20
2022-09-04T09:49:26.131Z,24.28
2022-09-04T09:52:08.293Z,24.39
2022-09-04T09:54:53.099Z,24.47
2022-09-04T09:57:34.291Z,24.58
2022-09-04T10:00:05.806Z,24.68
2022-09-04T10:03:00.034Z,24.77
2022-09-04T10:05:50.486Z,24.91
2022-09-04T10:08:35.686Z,25.06
2022-09-04T10:11:16.496Z,25.16
2022-09-04T10:13:51.006Z,25.31
2022-09-04T10:16:35.230Z,25.41
2022-09-04T10:19:14.895Z,25.48
2022-09-04T10:21:57.295Z,25.55
2022-09-04T10:24:35.623Z,25.56
2022-09-04T10:27:28.518Z,25.61
2022-09-04T10:30:04.405Z,25.78
2022-09-04T10:32:38.830Z,25.89
2022-09-04T10:35:15.961Z,25.94
2022-09-04T10:37:53.422Z,26.08
2022-09-04T10:40:25.515Z,26.25
2022-09-04T10:43:00.331Z,26.38
2022-09-04T10:45:30.109Z,26.55
2022-09-04T10:48:17.435Z,26.70
2022-09-04T10:50:59.844Z,26.67
2022-09-04T10:53:36.986Z,26.63
2022-09-04T10:56:10.631Z,26.70
2022-09-04T10:58:51.822Z,26.77
2022-09-04T11:01:29.387Z,26.87
2022-09-04T11:04:01.770Z,26.97
2022-09-04T11:06:52.072Z,27.01
2022-09-04T11:09:30.488Z,27.14
2022-09-04T11:12:12.151Z,27.14
2022-09-04T11:14:58.482Z,27.13
2022-09-04T11:17:38.248Z,27.25
2022-09-04T11:20:21.807Z,27.30
2022-09-04T11:23:06.834Z,27.26
2022-09-04T11:25:54.374Z,27.29
2022-09-04T11:28:47.652Z,27.17
2022-09-04T11:31:31.064Z,27.19
2022-09-04T11:34:16.023Z,27.19
2022-09-04T11:36:53.327Z,27.28
2022-09-04T11:39:37.330Z,27.22
2022-09-04T11:42:15.411Z,26.98
2022-09-04T11:44:51.545Z,26.80
2022-09-04T11:47:37.230Z,26.82
2022-09-04T11:50:14.203Z,26.99
2022-09-04T11:52:50.056Z,27.01
2022-09-04T11:55:24.214Z,27.03
2022-09-04T11:58:09.270Z,27.12
2022-09-04T12:00:40.637Z,27.10
2022-09-04T12:03:24.798Z,27.01
2022-09-04T12:06:09.962Z,26.97
2022-09-04T12:09:09.310Z,27.02
2022-09-04T12:11:56.418Z,27.09
2022-09-04T12:14:33.606Z,27.16
2022-09-04T12:17:21.331Z,27.15
2022-09-04T12:19:57.459Z,27.10
2022-09-04T12:22:42.038Z,27.12
2022-09-04T12:25:29.776Z,27.18
2022-09-04T12:28:05.868Z,27.29
2022-09-04T12:30:42.722Z,27.42
2022-09-04T12:33:19.020Z,27.39
2022-09-04T12:35:52.149Z,27.43
2022-09-04T12:38:37.424Z,27.53
2022-09-04T12:41:09.291Z,27.67
2022-09-04T12:43:42.693Z,27.74
2022-09-04T12:46:15.189Z,27.70
2022-09-04T12:48:47.619Z,27.66
2022-09-04T12:51:15.099Z,27.58
2022-09-04T12:53:59.156Z,27.58
2022-09-04T12:56:33.856Z,27.60
2022-09-04T12:59:11.503Z,27.68
2022-09-04T13:01:48.847Z,27.78
2022-09-04T13:04:20.934Z,27.85
2022-09-04T13:06:53.509Z,27.87
2022-09-04T13:09:24.228Z,27.86
2022-09-04T13:11:59.239Z,27.85
2022-09-04T13:14:43.388Z,27.82
2022-09-04T13:17:18.274Z,27.79
2022-09-04T13:19:50.310Z,27.74
2022-09-04T13:22:24.264Z,27.71
2022-09-04T13:24:56.467Z,27.75
2022-09-04T13:27:29.769Z,27.83
2022-09-04T13:30:03.563Z,27.86
2022-09-04T13:32:45.088Z,27.84
2022-09-04T13:35:19.722Z,27.85
2022-09-04T13:37:56.367Z,27.81
2022-09-04T13:40:32.667Z,27.79
2022-09-04T13:43:14.297Z,27.82
2022-09-04T13:45:43.799Z,27.71
2022-09-04T13:48:11.948Z,27.71
2022-09-04T13:50:44.451Z,27.73
2022-09-04T13:53:14.261Z,27.77
2022-09-04T13:55:42.527Z,27.82
2022-09-04T13:58:18.923Z,27.90
2022-09-04T14:00:47.720Z,27.94
2022-09-04T14:03:17.515Z,27.89
2022-09-04T14:05:44.386Z,27.86
2022-09-04T14:08:14.420Z,27.83
2022-09-04T14:10:57.219Z,27.82
2022-09-04T14:13:35.040Z,27.83
2022-09-04T14:16:05.219Z,27.86
2022-09-04T14:18:46.473Z,27.88
2022-09-04T14:21:18.379Z,27.86
2022-09-04T14:23:50.239Z,27.85
2022-09-04T14:26:23.654Z,27.80
2022-09-04T14:28:58.119Z,27.75
2022-09-04T14:31:28.747Z,27.73
2022-09-04T14:34:06.584Z,27.74
2022-09-04T14:36:35.433Z,27.72
2022-09-04T14:39:16.194Z,27.73
2022-09-04T14:42:03.426Z,27.71
2022-09-04T14:44:41.423Z,27.70
2022-09-04T14:47:12.475Z,27.66
2022-09-04T14:49:41.377Z,27.64
2022-09-04T14:52:15.182Z,27.58
2022-09-04T14:54:41.757Z,27.57
2022-09-04T14:57:12.725Z,27.56
2022-09-04T14:59:43.390Z,27.55
2022-09-04T15:02:17.994Z,27.58
2022-09-04T15:04:46.760Z,27.62
2022-09-04T15:07:21.155Z,27.66
2022-09-04T15:09:49.665Z,27.68
2022-09-04T15:12:24.631Z,27.68
2022-09-04T15:14:56.224Z,27.66
2022-09-04T15:17:24.720Z,27.61
2022-09-04T15:19:53.989Z,27.57
2022-09-04T15:22:22.966Z,27.53
2022-09-04T15:24:52.480Z,27.50
2022-09-04T15:27:21.413Z,27.49
2022-09-04T15:29:58.295Z,27.50
2022-09-04T15:32:27.649Z,27.50
2022-09-04T15:35:05.887Z,27.46
2022-09-04T15:37:32.617Z,27.41
2022-09-04T15:40:03.818Z,27.34
2022-09-04T15:42:33.427Z,27.28
2022-09-04T15:45:00.427Z,27.22
2022-09-04T15:47:44.109Z,27.15
2022-09-04T15:50:18.447Z,27.10
2022-09-04T15:52:48.396Z,27.06
2022-09-04T15:55:21.030Z,27.02
2022-09-04T15:57:52.062Z,26.95
2022-09-04T16:00:21.568Z,26.91
2022-09-04T16:02:53.730Z,26.86
2022-09-04T16:05:24.063Z,26.84
2022-09-04T16:07:55.428Z,26.84
2022-09-04T16:10:23.743Z,26.84
2022-09-04T16:12:51.785Z,26.87
2022-09-04T16:15:21.091Z,26.92
2022-09-04T16:17:50.147Z,26.95
2022-09-04T16:20:21.679Z,26.96
2022-09-04T16:22:51.195Z,26.99
2022-09-04T16:25:23.670Z,26.96
2022-09-04T16:27:53.532Z,26.95
2022-09-04T16:30:30.634Z,26.91
2022-09-04T16:32:57.675Z,26.89
2022-09-04T16:35:27.223Z,26.83
2022-09-04T16:37:58.847Z,26.81
2022-09-04T16:40:29.219Z,26.77
2022-09-04T16:42:58.458Z,26.73
2022-09-04T16:45:27.477Z,26.70
2022-09-04T16:47:55.668Z,26.65
2022-09-04T16:50:24.896Z,26.60
2022-09-04T16:53:13.760Z,26.54
2022-09-04T16:55:44.784Z,26.51
2022-09-04T16:58:35.127Z,26.48
2022-09-04T17:01:13.842Z,26.43
2022-09-04T17:03:42.951Z,26.36
2022-09-04T17:06:16.186Z,26.30
2022-09-04T17:08:50.470Z,26.23
2022-09-04T17:11:20.411Z,26.17
2022-09-04T17:13:48.341Z,26.10
2022-09-04T17:16:18.666Z,26.02
2022-09-04T17:18:46.363Z,25.97
2022-09-04T17:26:16.719Z,25.90
2022-09-04T17:28:56.486Z,25.84
2022-09-04T17:29:15.426Z,25.77
2022-09-04T17:29:48.801Z,25.69
2022-09-04T17:32:32.181Z,25.62
2022-09-04T17:40:42.888Z,25.54
2022-09-04T17:40:49.400Z,25.47
2022-09-04T17:41:38.039Z,25.38
2022-09-04T17:43:52.379Z,25.30
2022-09-04T17:46:24.625Z,25.22
2022-09-04T17:48:51.103Z,25.16
2022-09-04T17:51:21.540Z,25.09
2022-09-04T17:53:51.318Z,25.00
2022-09-04T17:56:21.474Z,24.91
2022-09-04T17:58:49.486Z,24.81
2022-09-04T18:01:19.867Z,24.70
2022-09-04T18:04:04.215Z,24.58
2022-09-04T18:06:39.113Z,24.47
2022-09-04T18:09:09.165Z,24.37
2022-09-04T18:11:39.401Z,24.26
2022-09-04T18:14:12.652Z,24.14
2022-09-04T18:17:11.729Z,24.03
2022-09-04T18:19:42.236Z,23.87
2022-09-04T18:22:26.676Z,23.75
2022-09-04T18:25:00.679Z,23.61
2022-09-04T18:27:49.358Z,23.48
2022-09-04T18:37:08.433Z,23.36
2022-09-04T18:37:20.113Z,23.12
2022-09-04T18:37:23.603Z,23.22
2022-09-04T18:39:22.145Z,23.04
2022-09-04T18:48:30.488Z,22.90
2022-09-04T18:50:38.073Z,22.67
2022-09-04T18:50:51.325Z,22.78
2022-09-04T18:51:14.602Z,22.58
2022-09-04T18:53:27.012Z,22.48
2022-09-04T18:55:55.599Z,22.41
2022-09-04T18:58:40.807Z,22.36
2022-09-04T19:01:11.907Z,22.26
2022-09-04T19:03:41.645Z,22.17
2022-09-04T19:06:11.331Z,22.07
2022-09-04T19:08:41.263Z,21.98
2022-09-04T19:11:20.508Z,21.90
2022-09-04T19:13:50.288Z,21.82
2022-09-04T19:16:22.537Z,21.73
2022-09-04T19:18:51.088Z,21.68
2022-09-04T19:21:30.939Z,21.64
2022-09-04T19:24:00.186Z,21.58
2022-09-04T19:26:33.349Z,21.56
2022-09-04T19:29:05.589Z,21.51
2022-09-04T19:31:35.005Z,21.44
2022-09-04T19:34:08.469Z,21.40
2022-09-04T19:36:37.598Z,21.35
2022-09-04T19:46:00.423Z,21.18
2022-09-04T19:46:05.892Z,21.22
2022-09-04T19:46:19.715Z,21.28
2022-09-04T19:47:49.286Z,21.12
2022-09-04T19:53:21.408Z,21.00
2022-09-04T19:53:29.900Z,20.90
2022-09-04T19:55:56.402Z,20.88
2022-09-04T19:58:25.504Z,20.88
2022-09-04T20:00:55.449Z,20.84
2022-09-04T20:03:30.059Z,20.83
2022-09-04T20:06:00.509Z,20.83
2022-09-04T20:08:47.962Z,20.75
2022-09-04T20:11:27.244Z,20.66
2022-09-04T20:14:13.908Z,20.62
2022-09-04T20:16:48.534Z,20.60
2022-09-04T20:19:27.917Z,20.58
2022-09-04T20:21:57.287Z,20.55
2022-09-04T20:24:25.645Z,20.55
2022-09-04T20:26:53.935Z,20.58
2022-09-04T20:29:23.095Z,20.57
2022-09-04T20:31:52.989Z,20.48
2022-09-04T20:34:29.620Z,20.44
2022-09-04T20:37:01.625Z,20.35
2022-09-04T20:39:32.253Z,20.28
2022-09-04T20:42:00.683Z,20.21
2022-09-04T20:44:30.491Z,20.16
2022-09-04T20:52:45.270Z,20.08
2022-09-04T20:52:59.376Z,20.04
2022-09-04T20:53:07.937Z,20.00
2022-09-04T20:55:37.099Z,19.96
2022-09-04T21:03:09.097Z,19.95
2022-09-04T21:03:17.938Z,19.90
2022-09-04T21:04:07.957Z,19.84
2022-09-04T21:06:42.162Z,19.81
2022-09-04T21:09:23.387Z,19.81
2022-09-04T21:11:51.615Z,19.80
2022-09-04T21:14:20.460Z,19.78
2022-09-04T21:17:34.568Z,19.74
2022-09-04T21:20:04.538Z,19.68
2022-09-04T21:22:39.089Z,19.62
2022-09-04T21:25:18.683Z,19.54
2022-09-04T21:28:03.836Z,19.47
2022-09-04T21:30:52.816Z,19.45
2022-09-04T21:33:26.655Z,19.46
2022-09-04T21:36:25.558Z,19.47
2022-09-04T21:38:58.047Z,19.53
2022-09-04T21:41:29.217Z,19.61
2022-09-04T21:44:19.496Z,19.73
2022-09-04T21:46:55.222Z,19.86
2022-09-04T21:49:36.565Z,19.92
2022-09-04T21:52:14.480Z,19.97
2022-09-04T21:58:47.456Z,20.04
2022-09-04T22:02:45.028Z,20.08
2022-09-04T22:03:55.114Z,20.14
2022-09-04T22:06:41.062Z,20.17
2022-09-04T22:13:31.649Z,20.17
2022-09-04T22:13:43.377Z,20.16
2022-09-04T22:15:02.568Z,20.12
2022-09-04T22:17:41.151Z,20.10
2022-09-04T22:20:25.383Z,20.08
2022-09-04T22:23:09.960Z,20.02
2022-09-04T22:25:46.515Z,19.89
2022-09-04T22:28:36.862Z,19.75
2022-09-04T22:31:17.749Z,19.59
2022-09-04T22:34:15.369Z,19.45
2022-09-04T22:37:00.749Z,19.27
2022-09-04T22:39:39.420Z,19.18
2022-09-04T22:42:20.201Z,19.10
2022-09-04T22:44:57.077Z,18.99
2022-09-04T22:47:55.863Z,18.90
2022-09-04T22:50:49.659Z,18.88
2022-09-04T22:53:28.660Z,18.83
2022-09-04T22:55:56.507Z,18.80
2022-09-04T22:58:51.283Z,18.77
2022-09-04T23:01:36.257Z,18.74
2022-09-04T23:04:11.393Z,18.71
2022-09-04T23:13:01.370Z,18.69
2022-09-04T23:13:52.745Z,18.65
2022-09-04T23:14:00.284Z,18.63
2022-09-04T23:15:54.966Z,18.59
2022-09-04T23:21:13.605Z,18.50
2022-09-04T23:26:37.308Z,18.43
2022-09-04T23:26:45.330Z,18.40
2022-09-04T23:27:31.819Z,18.38
2022-09-04T23:30:03.249Z,18.33
2022-09-04T23:32:37.428Z,18.27
2022-09-04T23:35:15.716Z,18.23
2022-09-04T23:38:00.136Z,18.12
2022-09-04T23:40:36.639Z,18.05
2022-09-04T23:43:18.918Z,18.01
2022-09-04T23:46:01.359Z,18.00
2022-09-04T23:48:36.742Z,17.98
2022-09-04T23:51:11.652Z,17.96
2022-09-04T23:53:44.432Z,17.97
2022-09-04T23:56:21.535Z,17.97
2022-09-04T23:58:56.374Z,17.95
